Terminal Aerodrome Forecast
Issued by NWS Brownsville, TX

Current Version | Previous Version | Text Only | Print | Product List | Glossary Off
Versions: 1 2 3 4 5 6 7 8 9 10 11 12 13 14 15 16 17

628
FTUS44 KBRO 190521
TAFBRO
TAF
KBRO 190521Z 1906/2006 31010KT 5SM -RADZ BR OVC004
     FM191200 30008KT 4SM SHRA BR OVC006=

USA.gov is the U.S. government's official web portal to all federal, state and local government web resources and services.